Flagstaff Pulliam Airport
KFLG : now visible

Airfield :











YOU CAN JOIN US ON...

 
LOGIN :

Register | Disclaimer

   EN    FR    IT 

 









Legend :    VFR   Marginal VFR   IFR   Intensive IFR   Very Intensive IFR
Visi :
Ceiling :
>= 8 km
>= 3000ft
5 to 8 km
1000 to 3000 ft
1500m to 5 km
500 to 1000 ft
800 to 1500m
200 to 500 ft
< 800m
< 200 ft
Symbols :   Thunderstorms  Fog  Heavy snow  Heavy precipitations  Wind > 20 kt






- Airport Elevation : 7014 ft
- IATA code : FLG


KFLG - Flagstaff Pulliam

CURRENT METAR :
  • 130557Z AUTO 21003KT 10SM CLR 17/03 A3034 RMK AO2 SLP153 T01720033 10289 20167 51010

EXPIRED METARs :
  • 130457Z AUTO 00000KT 10SM CLR 18/03 A3033 RMK AO2 SLP155 T01780033
  • 130357Z 00000KT 10SM CLR 20/03 A3032 RMK AO2 SLP147 T02000033

TAF KFLG
Valid from the 13 at 06:00 until the 14 at 06:00 UTC


130529Z 1306/1406 VRB05KT P6SM FEW250
FM131800 22008G15KT P6SM SCT080 SCT100
FM140200 VRB05KT P6SM FEW100 BKN250
KZAB FIR / North America



MET'MAP, your aeronautical weather chart ! - Copyright ORBIFLY December 2007 - Disclaimer

ORBIFLY MET'MAP TEAM :

Programming & Development : Alexandra Zaïnal
Concept & original design : Baudouin d'Aumeries
Assistance for programming : Marc-Olivier Méhu
Technical & hardware support : Manuel Goepfert

Contact : metmap@orbifly.com




SOURCES & CREDITS :

   NOAA       Earth
Advisory